sensor_id;sensor_type;location;lat;lon;timestamp;pressure;altitude;pressure_sealevel;temperature;humidity
6506;BME280;3286;49.858;8.768;2023-02-04T00:01:13;100519.22;;;8.53;55.71
6506;BME280;3286;49.858;8.768;2023-02-04T00:03:39;100518.66;;;7.94;55.78
6506;BME280;3286;49.858;8.768;2023-02-04T00:06:07;100517.38;;;8.27;55.20
6506;BME280;3286;49.858;8.768;2023-02-04T00:08:34;100524.97;;;9.10;53.10
6506;BME280;3286;49.858;8.768;2023-02-04T00:11:01;100526.56;;;9.50;52.49
6506;BME280;3286;49.858;8.768;2023-02-04T00:13:28;100530.72;;;9.28;52.96
6506;BME280;3286;49.858;8.768;2023-02-04T00:15:55;100525.72;;;9.49;52.76
6506;BME280;3286;49.858;8.768;2023-02-04T00:18:21;100525.50;;;8.37;54.00
6506;BME280;3286;49.858;8.768;2023-02-04T00:20:48;100528.34;;;9.49;51.34
6506;BME280;3286;49.858;8.768;2023-02-04T00:23:16;100532.31;;;9.31;52.52
6506;BME280;3286;49.858;8.768;2023-02-04T00:25:43;100526.69;;;8.59;52.99
6506;BME280;3286;49.858;8.768;2023-02-04T00:28:09;100520.84;;;8.41;54.48
6506;BME280;3286;49.858;8.768;2023-02-04T00:30:36;100519.53;;;8.08;54.27
6506;BME280;3286;49.858;8.768;2023-02-04T00:33:02;100524.41;;;8.27;53.79
6506;BME280;3286;49.858;8.768;2023-02-04T00:35:29;100531.81;;;8.35;54.02
6506;BME280;3286;49.858;8.768;2023-02-04T00:37:56;100530.81;;;8.76;52.96
6506;BME280;3286;49.858;8.768;2023-02-04T00:40:24;100535.84;;;8.13;54.16
6506;BME280;3286;49.858;8.768;2023-02-04T00:42:50;100538.09;;;7.79;55.17
6506;BME280;3286;49.858;8.768;2023-02-04T00:45:17;100538.09;;;8.32;54.17
6506;BME280;3286;49.858;8.768;2023-02-04T00:47:44;100543.94;;;7.97;54.69
6506;BME280;3286;49.858;8.768;2023-02-04T00:50:10;100542.81;;;8.93;53.06
6506;BME280;3286;49.858;8.768;2023-02-04T00:52:37;100543.34;;;9.11;52.12
6506;BME280;3286;49.858;8.768;2023-02-04T00:55:04;100542.66;;;9.34;51.35
6506;BME280;3286;49.858;8.768;2023-02-04T00:57:33;100545.69;;;8.24;54.40
6506;BME280;3286;49.858;8.768;2023-02-04T01:00:00;100551.47;;;8.82;53.14
6506;BME280;3286;49.858;8.768;2023-02-04T01:02:27;100556.09;;;7.58;55.73
6506;BME280;3286;49.858;8.768;2023-02-04T01:04:53;100555.31;;;7.70;55.15
6506;BME280;3286;49.858;8.768;2023-02-04T01:07:20;100572.38;;;7.77;55.21
6506;BME280;3286;49.858;8.768;2023-02-04T01:09:47;100564.22;;;8.22;53.38
6506;BME280;3286;49.858;8.768;2023-02-04T01:12:14;100558.75;;;8.66;53.05
6506;BME280;3286;49.858;8.768;2023-02-04T01:14:42;100561.66;;;7.80;55.30
6506;BME280;3286;49.858;8.768;2023-02-04T01:17:08;100571.69;;;8.69;52.47
6506;BME280;3286;49.858;8.768;2023-02-04T01:19:35;100574.38;;;8.41;52.25
6506;BME280;3286;49.858;8.768;2023-02-04T01:22:02;100575.94;;;8.44;52.75
6506;BME280;3286;49.858;8.768;2023-02-04T01:24:28;100582.41;;;8.12;54.33
6506;BME280;3286;49.858;8.768;2023-02-04T01:26:55;100583.81;;;8.59;52.49
6506;BME280;3286;49.858;8.768;2023-02-04T01:29:21;100586.00;;;8.52;52.36
6506;BME280;3286;49.858;8.768;2023-02-04T01:31:49;100589.50;;;7.70;54.04
6506;BME280;3286;49.858;8.768;2023-02-04T01:34:16;100582.00;;;7.91;54.85
6506;BME280;3286;49.858;8.768;2023-02-04T01:36:42;100588.66;;;8.24;52.94
6506;BME280;3286;49.858;8.768;2023-02-04T01:39:09;100587.34;;;7.90;54.74
6506;BME280;3286;49.858;8.768;2023-02-04T01:41:36;100588.22;;;7.48;55.52
6506;BME280;3286;49.858;8.768;2023-02-04T01:44:02;100601.75;;;7.28;55.85
6506;BME280;3286;49.858;8.768;2023-02-04T01:46:29;100599.03;;;7.29;56.61
6506;BME280;3286;49.858;8.768;2023-02-04T01:49:00;100590.66;;;6.93;56.85
6506;BME280;3286;49.858;8.768;2023-02-04T01:51:27;100593.63;;;6.73;57.28
6506;BME280;3286;49.858;8.768;2023-02-04T01:53:56;100583.63;;;7.08;57.29
6506;BME280;3286;49.858;8.768;2023-02-04T01:56:25;100574.91;;;7.08;57.58
6506;BME280;3286;49.858;8.768;2023-02-04T01:58:53;100587.97;;;7.09;57.08
6506;BME280;3286;49.858;8.768;2023-02-04T02:01:34;100581.16;;;6.76;58.07
6506;BME280;3286;49.858;8.768;2023-02-04T02:04:03;100571.91;;;7.00;57.65
6506;BME280;3286;49.858;8.768;2023-02-04T02:06:31;100578.72;;;6.88;56.49
6506;BME280;3286;49.858;8.768;2023-02-04T02:08:58;100584.66;;;6.77;58.08
6506;BME280;3286;49.858;8.768;2023-02-04T02:11:25;100580.81;;;7.41;55.00
6506;BME280;3286;49.858;8.768;2023-02-04T02:13:52;100587.34;;;6.61;58.01
6506;BME280;3286;49.858;8.768;2023-02-04T02:16:19;100586.72;;;7.01;57.23
6506;BME280;3286;49.858;8.768;2023-02-04T02:18:46;100595.09;;;7.07;57.10
6506;BME280;3286;49.858;8.768;2023-02-04T02:21:20;100601.59;;;7.16;55.91
6506;BME280;3286;49.858;8.768;2023-02-04T02:23:53;100603.59;;;7.54;54.91
6506;BME280;3286;49.858;8.768;2023-02-04T02:26:22;100593.84;;;7.57;55.00
6506;BME280;3286;49.858;8.768;2023-02-04T02:28:50;100600.75;;;8.27;52.83
6506;BME280;3286;49.858;8.768;2023-02-04T02:31:19;100609.72;;;7.97;54.19
6506;BME280;3286;49.858;8.768;2023-02-04T02:33:46;100602.59;;;7.99;54.58
6506;BME280;3286;49.858;8.768;2023-02-04T02:36:13;100604.53;;;7.68;54.42
6506;BME280;3286;49.858;8.768;2023-02-04T02:38:40;100596.19;;;8.44;53.38
6506;BME280;3286;49.858;8.768;2023-02-04T02:41:08;100604.31;;;8.53;52.33
6506;BME280;3286;49.858;8.768;2023-02-04T02:43:36;100603.84;;;7.79;54.08
6506;BME280;3286;49.858;8.768;2023-02-04T02:46:04;100611.13;;;7.61;54.70
6506;BME280;3286;49.858;8.768;2023-02-04T02:48:31;100610.50;;;7.43;55.56
6506;BME280;3286;49.858;8.768;2023-02-04T02:50:58;100612.41;;;7.68;54.36
6506;BME280;3286;49.858;8.768;2023-02-04T02:53:24;100609.00;;;8.35;53.09
6506;BME280;3286;49.858;8.768;2023-02-04T02:55:51;100614.34;;;8.61;52.12
6506;BME280;3286;49.858;8.768;2023-02-04T02:58:22;100621.84;;;7.29;54.07
6506;BME280;3286;49.858;8.768;2023-02-04T03:00:50;100627.47;;;7.66;54.52
6506;BME280;3286;49.858;8.768;2023-02-04T03:03:19;100635.75;;;6.71;56.39
6506;BME280;3286;49.858;8.768;2023-02-04T03:05:50;100643.41;;;7.48;54.25
6506;BME280;3286;49.858;8.768;2023-02-04T03:08:18;100637.22;;;7.49;53.93
6506;BME280;3286;49.858;8.768;2023-02-04T03:10:45;100640.09;;;7.88;53.95
6506;BME280;3286;49.858;8.768;2023-02-04T03:13:13;100638.97;;;7.92;52.64
6506;BME280;3286;49.858;8.768;2023-02-04T03:15:44;100637.25;;;7.35;53.95
6506;BME280;3286;49.858;8.768;2023-02-04T03:18:13;100648.25;;;6.82;55.00
6506;BME280;3286;49.858;8.768;2023-02-04T03:20:41;100634.59;;;7.64;53.36
6506;BME280;3286;49.858;8.768;2023-02-04T03:23:08;100650.91;;;7.11;55.05
6506;BME280;3286;49.858;8.768;2023-02-04T03:25:35;100653.66;;;7.09;53.75
6506;BME280;3286;49.858;8.768;2023-02-04T03:28:02;100653.31;;;7.45;53.41
6506;BME280;3286;49.858;8.768;2023-02-04T03:30:29;100656.56;;;7.77;52.66
6506;BME280;3286;49.858;8.768;2023-02-04T03:32:57;100664.25;;;8.22;51.14
6506;BME280;3286;49.858;8.768;2023-02-04T03:35:24;100666.84;;;6.79;54.52
6506;BME280;3286;49.858;8.768;2023-02-04T03:37:50;100671.66;;;7.01;54.28
6506;BME280;3286;49.858;8.768;2023-02-04T03:40:17;100679.22;;;7.80;52.62
6506;BME280;3286;49.858;8.768;2023-02-04T03:42:44;100691.69;;;7.47;53.21
6506;BME280;3286;49.858;8.768;2023-02-04T03:45:11;100688.47;;;8.00;51.56
6506;BME280;3286;49.858;8.768;2023-02-04T03:47:37;100690.56;;;7.37;52.66
6506;BME280;3286;49.858;8.768;2023-02-04T03:50:06;100688.00;;;7.93;51.59
6506;BME280;3286;49.858;8.768;2023-02-04T03:52:35;100679.69;;;7.58;52.79
6506;BME280;3286;49.858;8.768;2023-02-04T03:55:01;100681.94;;;7.49;53.24
6506;BME280;3286;49.858;8.768;2023-02-04T03:57:28;100691.31;;;7.39;53.05
6506;BME280;3286;49.858;8.768;2023-02-04T03:59:55;100692.72;;;7.88;52.98
6506;BME280;3286;49.858;8.768;2023-02-04T04:02:21;100702.38;;;8.02;51.54
6506;BME280;3286;49.858;8.768;2023-02-04T04:04:48;100700.31;;;7.93;52.16
6506;BME280;3286;49.858;8.768;2023-02-04T04:07:16;100705.59;;;7.78;51.58
6506;BME280;3286;49.858;8.768;2023-02-04T04:09:42;100709.72;;;7.82;51.75
6506;BME280;3286;49.858;8.768;2023-02-04T04:12:09;100698.84;;;8.58;49.83
6506;BME280;3286;49.858;8.768;2023-02-04T04:14:35;100715.41;;;8.60;50.18
6506;BME280;3286;49.858;8.768;2023-02-04T04:17:02;100713.41;;;8.91;49.39
6506;BME280;3286;49.858;8.768;2023-02-04T04:19:29;100712.34;;;9.07;48.84
6506;BME280;3286;49.858;8.768;2023-02-04T04:21:56;100712.28;;;8.68;49.22
6506;BME280;3286;49.858;8.768;2023-02-04T04:24:24;100711.25;;;8.83;49.34
6506;BME280;3286;49.858;8.768;2023-02-04T04:26:51;100721.53;;;8.61;50.25
6506;BME280;3286;49.858;8.768;2023-02-04T04:29:17;100736.59;;;7.73;52.42
6506;BME280;3286;49.858;8.768;2023-02-04T04:31:44;100739.44;;;7.99;51.46
6506;BME280;3286;49.858;8.768;2023-02-04T04:34:10;100745.06;;;8.49;49.99
6506;BME280;3286;49.858;8.768;2023-02-04T04:36:37;100734.06;;;7.86;51.35
6506;BME280;3286;49.858;8.768;2023-02-04T04:39:04;100734.16;;;8.41;50.75
6506;BME280;3286;49.858;8.768;2023-02-04T04:41:31;100745.03;;;8.64;50.09
6506;BME280;3286;49.858;8.768;2023-02-04T04:43:58;100740.91;;;8.60;49.65
6506;BME280;3286;49.858;8.768;2023-02-04T04:46:25;100742.69;;;8.17;51.09
6506;BME280;3286;49.858;8.768;2023-02-04T04:48:51;100735.66;;;8.60;49.85
6506;BME280;3286;49.858;8.768;2023-02-04T04:51:18;100737.31;;;8.19;50.66
6506;BME280;3286;49.858;8.768;2023-02-04T04:53:44;100737.03;;;8.09;51.35
6506;BME280;3286;49.858;8.768;2023-02-04T04:56:11;100735.75;;;7.58;52.75
6506;BME280;3286;49.858;8.768;2023-02-04T04:58:39;100727.69;;;7.47;53.61
6506;BME280;3286;49.858;8.768;2023-02-04T05:01:06;100727.19;;;7.54;54.00
6506;BME280;3286;49.858;8.768;2023-02-04T05:03:32;100717.41;;;8.42;50.29
6506;BME280;3286;49.858;8.768;2023-02-04T05:05:59;100722.91;;;8.66;50.65
6506;BME280;3286;49.858;8.768;2023-02-04T05:08:25;100711.94;;;9.00;49.84
6506;BME280;3286;49.858;8.768;2023-02-04T05:10:52;100727.75;;;9.00;49.70
6506;BME280;3286;49.858;8.768;2023-02-04T05:13:19;100740.56;;;8.92;51.03
6506;BME280;3286;49.858;8.768;2023-02-04T05:15:47;100743.41;;;8.89;50.23
6506;BME280;3286;49.858;8.768;2023-02-04T05:18:13;100741.94;;;8.84;50.00
6506;BME280;3286;49.858;8.768;2023-02-04T05:20:40;100750.84;;;8.69;50.61
6506;BME280;3286;49.858;8.768;2023-02-04T05:23:06;100746.78;;;8.91;50.38
6506;BME280;3286;49.858;8.768;2023-02-04T05:25:33;100761.59;;;8.66;50.56
6506;BME280;3286;49.858;8.768;2023-02-04T05:28:00;100756.00;;;8.70;50.25
6506;BME280;3286;49.858;8.768;2023-02-04T05:30:27;100757.00;;;8.55;50.54
6506;BME280;3286;49.858;8.768;2023-02-04T05:32:55;100764.50;;;8.05;50.88
6506;BME280;3286;49.858;8.768;2023-02-04T05:35:21;100756.44;;;7.93;51.73
6506;BME280;3286;49.858;8.768;2023-02-04T05:37:48;100756.59;;;8.19;50.89
6506;BME280;3286;49.858;8.768;2023-02-04T05:40:15;100760.72;;;8.23;50.88
6506;BME280;3286;49.858;8.768;2023-02-04T05:42:41;100757.97;;;8.54;51.08
6506;BME280;3286;49.858;8.768;2023-02-04T05:45:13;100767.25;;;8.45;51.16
6506;BME280;3286;49.858;8.768;2023-02-04T05:47:40;100771.16;;;8.25;51.21
6506;BME280;3286;49.858;8.768;2023-02-04T05:50:09;100773.97;;;8.51;51.20
6506;BME280;3286;49.858;8.768;2023-02-04T05:52:35;100777.63;;;8.76;50.50
6506;BME280;3286;49.858;8.768;2023-02-04T05:55:03;100776.59;;;8.51;50.52
6506;BME280;3286;49.858;8.768;2023-02-04T05:57:29;100784.31;;;8.25;50.44
6506;BME280;3286;49.858;8.768;2023-02-04T05:59:56;100783.25;;;8.42;50.78
6506;BME280;3286;49.858;8.768;2023-02-04T06:02:23;100777.34;;;8.38;50.39
6506;BME280;3286;49.858;8.768;2023-02-04T06:04:50;100777.66;;;8.05;51.27
6506;BME280;3286;49.858;8.768;2023-02-04T06:07:18;100773.63;;;7.99;51.16
6506;BME280;3286;49.858;8.768;2023-02-04T06:09:45;100776.72;;;7.91;51.57
6506;BME280;3286;49.858;8.768;2023-02-04T06:12:12;100780.84;;;8.10;50.92
6506;BME280;3286;49.858;8.768;2023-02-04T06:14:39;100785.00;;;8.00;50.93
6506;BME280;3286;49.858;8.768;2023-02-04T06:17:05;100784.16;;;8.14;50.91
6506;BME280;3286;49.858;8.768;2023-02-04T06:19:32;100793.94;;;7.97;51.88
6506;BME280;3286;49.858;8.768;2023-02-04T06:21:58;100796.16;;;7.89;51.63
6506;BME280;3286;49.858;8.768;2023-02-04T06:24:26;100798.09;;;7.42;52.29
6506;BME280;3286;49.858;8.768;2023-02-04T06:26:53;100805.81;;;7.45;53.12
6506;BME280;3286;49.858;8.768;2023-02-04T06:29:20;100799.88;;;6.64;55.16
6506;BME280;3286;49.858;8.768;2023-02-04T06:31:46;100811.06;;;6.02;57.24
6506;BME280;3286;49.858;8.768;2023-02-04T06:34:13;100809.59;;;6.94;55.17
6506;BME280;3286;49.858;8.768;2023-02-04T06:36:40;100805.31;;;7.38;53.82
6506;BME280;3286;49.858;8.768;2023-02-04T06:39:06;100814.72;;;7.42;53.76
6506;BME280;3286;49.858;8.768;2023-02-04T06:41:34;100817.97;;;7.62;53.00
6506;BME280;3286;49.858;8.768;2023-02-04T06:44:01;100821.94;;;7.98;51.76
6506;BME280;3286;49.858;8.768;2023-02-04T06:46:28;100818.47;;;7.97;52.61
6506;BME280;3286;49.858;8.768;2023-02-04T06:48:54;100824.00;;;8.22;52.01
6506;BME280;3286;49.858;8.768;2023-02-04T06:51:21;100832.00;;;8.20;51.75
6506;BME280;3286;49.858;8.768;2023-02-04T06:53:48;100829.16;;;8.38;51.24
6506;BME280;3286;49.858;8.768;2023-02-04T06:56:14;100832.09;;;8.19;51.78
6506;BME280;3286;49.858;8.768;2023-02-04T06:58:42;100836.25;;;7.49;52.74
6506;BME280;3286;49.858;8.768;2023-02-04T07:01:09;100831.19;;;6.99;55.07
6506;BME280;3286;49.858;8.768;2023-02-04T07:03:36;100832.31;;;6.95;55.91
6506;BME280;3286;49.858;8.768;2023-02-04T07:06:02;100831.63;;;6.75;56.56
6506;BME280;3286;49.858;8.768;2023-02-04T07:08:29;100838.41;;;6.63;56.26
6506;BME280;3286;49.858;8.768;2023-02-04T07:10:55;100839.63;;;6.24;57.52
6506;BME280;3286;49.858;8.768;2023-02-04T07:13:22;100840.69;;;6.37;57.44
6506;BME280;3286;49.858;8.768;2023-02-04T07:15:50;100853.72;;;7.19;55.15
6506;BME280;3286;49.858;8.768;2023-02-04T07:18:17;100859.50;;;7.41;54.57
6506;BME280;3286;49.858;8.768;2023-02-04T07:20:45;100865.38;;;8.05;52.71
6506;BME280;3286;49.858;8.768;2023-02-04T07:23:11;100868.00;;;8.20;52.33
6506;BME280;3286;49.858;8.768;2023-02-04T07:25:38;100877.09;;;8.14;52.09
6506;BME280;3286;49.858;8.768;2023-02-04T07:28:04;100878.97;;;7.22;54.02
6506;BME280;3286;49.858;8.768;2023-02-04T07:30:31;100895.31;;;6.47;57.88
6506;BME280;3286;49.858;8.768;2023-02-04T07:32:59;100884.22;;;7.52;54.54
6506;BME280;3286;49.858;8.768;2023-02-04T07:35:26;100885.31;;;7.34;54.50
6506;BME280;3286;49.858;8.768;2023-02-04T07:37:52;100895.81;;;7.64;54.43
6506;BME280;3286;49.858;8.768;2023-02-04T07:40:19;100885.38;;;7.93;53.57
6506;BME280;3286;49.858;8.768;2023-02-04T07:42:46;100890.25;;;8.00;53.77
6506;BME280;3286;49.858;8.768;2023-02-04T07:45:13;100895.50;;;7.85;53.51
6506;BME280;3286;49.858;8.768;2023-02-04T07:47:39;100904.38;;;8.13;52.81
6506;BME280;3286;49.858;8.768;2023-02-04T07:50:08;100906.03;;;8.59;52.01
6506;BME280;3286;49.858;8.768;2023-02-04T07:52:35;100908.00;;;7.81;53.77
6506;BME280;3286;49.858;8.768;2023-02-04T07:55:01;100923.06;;;7.17;56.02
6506;BME280;3286;49.858;8.768;2023-02-04T07:57:28;100916.44;;;8.46;52.13
6506;BME280;3286;49.858;8.768;2023-02-04T07:59:55;100923.31;;;8.63;52.06
6506;BME280;3286;49.858;8.768;2023-02-04T08:02:22;100928.41;;;8.52;51.36
6506;BME280;3286;49.858;8.768;2023-02-04T08:04:49;100930.66;;;8.58;50.95
6506;BME280;3286;49.858;8.768;2023-02-04T08:07:17;100932.72;;;8.38;51.59
6506;BME280;3286;49.858;8.768;2023-02-04T08:09:43;100937.91;;;7.95;53.40
6506;BME280;3286;49.858;8.768;2023-02-04T08:12:11;100932.88;;;8.06;52.88
6506;BME280;3286;49.858;8.768;2023-02-04T08:14:37;100941.69;;;8.05;52.48
6506;BME280;3286;49.858;8.768;2023-02-04T08:17:04;100937.56;;;8.01;52.71
6506;BME280;3286;49.858;8.768;2023-02-04T08:19:30;100937.47;;;7.72;53.70
6506;BME280;3286;49.858;8.768;2023-02-04T08:21:57;100945.41;;;7.87;53.36
6506;BME280;3286;49.858;8.768;2023-02-04T08:24:25;100935.34;;;8.38;52.09
6506;BME280;3286;49.858;8.768;2023-02-04T08:26:52;100954.00;;;8.50;51.10
6506;BME280;3286;49.858;8.768;2023-02-04T08:29:18;100956.56;;;8.35;52.01
6506;BME280;3286;49.858;8.768;2023-02-04T08:31:45;100949.56;;;8.50;51.40
6506;BME280;3286;49.858;8.768;2023-02-04T08:34:12;100957.84;;;8.73;51.01
6506;BME280;3286;49.858;8.768;2023-02-04T08:36:38;100964.06;;;8.72;50.55
6506;BME280;3286;49.858;8.768;2023-02-04T08:39:05;100968.06;;;9.07;49.48
6506;BME280;3286;49.858;8.768;2023-02-04T08:41:33;100969.50;;;8.54;50.70
6506;BME280;3286;49.858;8.768;2023-02-04T08:43:59;100971.56;;;8.93;51.09
6506;BME280;3286;49.858;8.768;2023-02-04T08:46:26;100979.19;;;8.97;50.58
6506;BME280;3286;49.858;8.768;2023-02-04T08:48:53;100986.66;;;8.76;51.40
6506;BME280;3286;49.858;8.768;2023-02-04T08:51:19;100981.94;;;8.81;50.88
6506;BME280;3286;49.858;8.768;2023-02-04T08:53:46;100984.06;;;8.01;52.83
6506;BME280;3286;49.858;8.768;2023-02-04T08:56:13;100986.38;;;8.52;50.82
6506;BME280;3286;49.858;8.768;2023-02-04T08:58:42;101000.03;;;8.28;51.93
6506;BME280;3286;49.858;8.768;2023-02-04T09:01:09;100994.66;;;8.89;51.41
6506;BME280;3286;49.858;8.768;2023-02-04T09:03:36;101011.50;;;7.96;52.47
6506;BME280;3286;49.858;8.768;2023-02-04T09:06:03;101000.03;;;7.97;52.81
6506;BME280;3286;49.858;8.768;2023-02-04T09:08:30;101012.34;;;8.27;52.02
6506;BME280;3286;49.858;8.768;2023-02-04T09:10:57;101008.78;;;8.88;52.21
6506;BME280;3286;49.858;8.768;2023-02-04T09:13:24;101014.41;;;8.53;51.81
6506;BME280;3286;49.858;8.768;2023-02-04T09:15:51;101015.97;;;7.80;53.59
6506;BME280;3286;49.858;8.768;2023-02-04T09:18:18;101004.72;;;8.82;51.30
6506;BME280;3286;49.858;8.768;2023-02-04T09:20:47;101007.69;;;8.02;52.83
6506;BME280;3286;49.858;8.768;2023-02-04T09:23:14;101011.03;;;8.80;51.45
6506;BME280;3286;49.858;8.768;2023-02-04T09:25:42;101012.53;;;8.24;52.53
6506;BME280;3286;49.858;8.768;2023-02-04T09:28:10;101015.25;;;8.82;51.96
6506;BME280;3286;49.858;8.768;2023-02-04T09:30:37;101018.34;;;9.04;50.37
6506;BME280;3286;49.858;8.768;2023-02-04T09:33:05;101028.19;;;7.81;53.33
6506;BME280;3286;49.858;8.768;2023-02-04T09:35:33;101028.34;;;8.24;51.91
6506;BME280;3286;49.858;8.768;2023-02-04T09:37:59;101028.59;;;8.50;51.95
6506;BME280;3286;49.858;8.768;2023-02-04T09:40:28;101039.63;;;8.57;50.95
6506;BME280;3286;49.858;8.768;2023-02-04T09:42:56;101024.41;;;8.91;51.45
6506;BME280;3286;49.858;8.768;2023-02-04T09:45:26;101037.09;;;8.70;50.96
6506;BME280;3286;49.858;8.768;2023-02-04T09:47:54;101039.69;;;9.28;50.04
6506;BME280;3286;49.858;8.768;2023-02-04T09:50:25;101038.41;;;9.06;50.59
6506;BME280;3286;49.858;8.768;2023-02-04T09:52:54;101045.34;;;9.78;48.74
6506;BME280;3286;49.858;8.768;2023-02-04T09:55:27;101055.72;;;9.39;49.45
6506;BME280;3286;49.858;8.768;2023-02-04T09:57:55;101054.84;;;9.39;48.91
6506;BME280;3286;49.858;8.768;2023-02-04T10:00:23;101051.00;;;9.30;48.75
6506;BME280;3286;49.858;8.768;2023-02-04T10:02:51;101052.19;;;10.08;47.24
6506;BME280;3286;49.858;8.768;2023-02-04T10:05:20;101048.75;;;10.34;46.73
6506;BME280;3286;49.858;8.768;2023-02-04T10:07:51;101061.09;;;9.80;48.01
6506;BME280;3286;49.858;8.768;2023-02-04T10:10:20;101068.31;;;9.49;49.28
6506;BME280;3286;49.858;8.768;2023-02-04T10:12:50;101059.38;;;10.85;45.88
6506;BME280;3286;49.858;8.768;2023-02-04T10:15:18;101069.16;;;9.77;48.97
6506;BME280;3286;49.858;8.768;2023-02-04T10:17:46;101071.66;;;10.20;48.35
6506;BME280;3286;49.858;8.768;2023-02-04T10:20:14;101075.56;;;10.14;47.25
6506;BME280;3286;49.858;8.768;2023-02-04T10:22:40;101065.84;;;10.42;46.78
6506;BME280;3286;49.858;8.768;2023-02-04T10:25:12;101072.50;;;10.61;47.07
6506;BME280;3286;49.858;8.768;2023-02-04T10:27:49;101080.13;;;9.98;48.17
6506;BME280;3286;49.858;8.768;2023-02-04T10:30:22;101083.38;;;10.56;44.38
6506;BME280;3286;49.858;8.768;2023-02-04T10:32:49;101078.00;;;10.71;44.13
6506;BME280;3286;49.858;8.768;2023-02-04T10:35:17;101080.66;;;10.31;45.69
6506;BME280;3286;49.858;8.768;2023-02-04T10:37:45;101086.22;;;10.40;44.74
6506;BME280;3286;49.858;8.768;2023-02-04T10:40:27;101077.69;;;10.76;44.63
6506;BME280;3286;49.858;8.768;2023-02-04T10:42:54;101074.50;;;11.09;43.71
6506;BME280;3286;49.858;8.768;2023-02-04T10:45:22;101071.91;;;11.47;42.76
6506;BME280;3286;49.858;8.768;2023-02-04T10:47:50;101067.00;;;10.90;43.28
6506;BME280;3286;49.858;8.768;2023-02-04T10:50:18;101066.84;;;11.68;42.71
6506;BME280;3286;49.858;8.768;2023-02-04T10:52:48;101066.72;;;11.45;41.00
6506;BME280;3286;49.858;8.768;2023-02-04T10:55:16;101074.41;;;10.19;45.03
6506;BME280;3286;49.858;8.768;2023-02-04T10:57:46;101074.09;;;10.77;43.23
6506;BME280;3286;49.858;8.768;2023-02-04T11:00:15;101056.72;;;11.11;42.08
6506;BME280;3286;49.858;8.768;2023-02-04T11:02:43;101068.41;;;11.46;41.90
6506;BME280;3286;49.858;8.768;2023-02-04T11:05:13;101063.66;;;11.38;41.09
6506;BME280;3286;49.858;8.768;2023-02-04T11:07:41;101055.63;;;11.88;40.50
6506;BME280;3286;49.858;8.768;2023-02-04T11:10:13;101061.41;;;12.07;39.36
6506;BME280;3286;49.858;8.768;2023-02-04T11:12:42;101065.44;;;11.75;40.29
6506;BME280;3286;49.858;8.768;2023-02-04T11:15:39;101062.16;;;11.96;39.52
6506;BME280;3286;49.858;8.768;2023-02-04T11:18:08;101067.38;;;11.73;40.12
6506;BME280;3286;49.858;8.768;2023-02-04T11:20:35;101066.53;;;11.59;40.75
6506;BME280;3286;49.858;8.768;2023-02-04T11:23:30;101062.91;;;11.98;39.39
6506;BME280;3286;49.858;8.768;2023-02-04T11:26:11;101070.78;;;11.12;41.26
6506;BME280;3286;49.858;8.768;2023-02-04T11:28:50;101065.56;;;11.73;40.90
6506;BME280;3286;49.858;8.768;2023-02-04T11:31:38;101071.66;;;11.63;40.69
6506;BME280;3286;49.858;8.768;2023-02-04T11:34:23;101074.00;;;10.78;42.00
6506;BME280;3286;49.858;8.768;2023-02-04T11:37:00;101072.16;;;11.30;41.13
6506;BME280;3286;49.858;8.768;2023-02-04T11:39:33;101082.13;;;10.88;42.03
6506;BME280;3286;49.858;8.768;2023-02-04T11:42:02;101070.03;;;11.36;40.62
6506;BME280;3286;49.858;8.768;2023-02-04T11:44:29;101077.03;;;10.59;43.00
6506;BME280;3286;49.858;8.768;2023-02-04T11:46:57;101076.84;;;10.88;42.78
6506;BME280;3286;49.858;8.768;2023-02-04T11:49:27;101063.28;;;11.19;41.49
6506;BME280;3286;49.858;8.768;2023-02-04T11:52:03;101081.81;;;10.26;44.01
6506;BME280;3286;49.858;8.768;2023-02-04T11:54:33;101068.28;;;10.71;42.74
6506;BME280;3286;49.858;8.768;2023-02-04T11:56:59;101079.59;;;10.33;43.87
6506;BME280;3286;49.858;8.768;2023-02-04T11:59:26;101076.94;;;10.99;42.93
6506;BME280;3286;49.858;8.768;2023-02-04T12:02:04;101079.25;;;11.17;43.06
6506;BME280;3286;49.858;8.768;2023-02-04T12:04:30;101078.09;;;11.58;42.19
6506;BME280;3286;49.858;8.768;2023-02-04T12:06:58;101076.66;;;11.79;40.78
6506;BME280;3286;49.858;8.768;2023-02-04T12:09:26;101074.97;;;11.78;41.15
6506;BME280;3286;49.858;8.768;2023-02-04T12:11:55;101076.13;;;12.11;40.38
6506;BME280;3286;49.858;8.768;2023-02-04T12:14:28;101075.13;;;11.87;40.71
6506;BME280;3286;49.858;8.768;2023-02-04T12:16:54;101077.44;;;11.30;41.83
6506;BME280;3286;49.858;8.768;2023-02-04T12:19:23;101086.88;;;11.22;41.13
6506;BME280;3286;49.858;8.768;2023-02-04T12:21:49;101081.78;;;11.19;41.81
6506;BME280;3286;49.858;8.768;2023-02-04T12:24:16;101076.59;;;11.67;40.04
6506;BME280;3286;49.858;8.768;2023-02-04T12:26:43;101081.19;;;11.02;40.98
6506;BME280;3286;49.858;8.768;2023-02-04T12:29:09;101085.34;;;11.43;40.76
6506;BME280;3286;49.858;8.768;2023-02-04T12:31:36;101081.41;;;11.49;41.84
6506;BME280;3286;49.858;8.768;2023-02-04T12:34:03;101078.78;;;11.73;40.47
6506;BME280;3286;49.858;8.768;2023-02-04T12:36:31;101077.03;;;12.34;39.67
6506;BME280;3286;49.858;8.768;2023-02-04T12:38:58;101082.56;;;11.82;40.03
6506;BME280;3286;49.858;8.768;2023-02-04T12:41:24;101086.44;;;12.02;39.13
6506;BME280;3286;49.858;8.768;2023-02-04T12:43:51;101083.34;;;12.09;39.22
6506;BME280;3286;49.858;8.768;2023-02-04T12:46:20;101089.63;;;10.81;41.09
6506;BME280;3286;49.858;8.768;2023-02-04T12:48:47;101086.34;;;10.52;42.66
6506;BME280;3286;49.858;8.768;2023-02-04T12:51:14;101090.78;;;10.64;42.89
6506;BME280;3286;49.858;8.768;2023-02-04T12:53:42;101090.31;;;11.48;40.94
6506;BME280;3286;49.858;8.768;2023-02-04T12:56:09;101092.34;;;11.44;40.17
6506;BME280;3286;49.858;8.768;2023-02-04T12:58:35;101093.75;;;11.24;41.01
6506;BME280;3286;49.858;8.768;2023-02-04T13:01:02;101093.09;;;11.21;41.32
6506;BME280;3286;49.858;8.768;2023-02-04T13:03:29;101089.31;;;11.62;39.50
6506;BME280;3286;49.858;8.768;2023-02-04T13:05:56;101079.94;;;11.82;40.06
6506;BME280;3286;49.858;8.768;2023-02-04T13:08:23;101082.00;;;12.97;37.49
6506;BME280;3286;49.858;8.768;2023-02-04T13:10:51;101081.16;;;12.38;39.16
6506;BME280;3286;49.858;8.768;2023-02-04T13:13:18;101086.22;;;12.06;39.83
6506;BME280;3286;49.858;8.768;2023-02-04T13:15:45;101092.66;;;11.77;39.42
6506;BME280;3286;49.858;8.768;2023-02-04T13:18:11;101091.16;;;12.35;38.56
6506;BME280;3286;49.858;8.768;2023-02-04T13:20:38;101086.13;;;12.07;37.89
6506;BME280;3286;49.858;8.768;2023-02-04T13:23:05;101095.66;;;11.22;40.59